createdAt,value
2019-04-04T00:02:53.905Z,96449.53
2019-04-04T00:07:54.788Z,96444.70
2019-04-04T00:12:55.683Z,96446.20
2019-04-04T00:17:56.555Z,96438.67
2019-04-04T00:22:57.435Z,96427.86
2019-04-04T00:27:58.434Z,96425.83
2019-04-04T00:32:59.352Z,96423.09
2019-04-04T00:38:00.226Z,96414.75
2019-04-04T00:43:01.108Z,96405.76
2019-04-04T00:48:03.047Z,96404.26
2019-04-04T00:53:04.608Z,96410.92
2019-04-04T00:58:05.488Z,96401.60
2019-04-04T01:03:06.363Z,96401.38
2019-04-04T01:08:07.563Z,96392.68
2019-04-04T01:13:08.577Z,96387.63
2019-04-04T01:18:09.556Z,96382.84
2019-04-04T01:23:10.435Z,96379.94
2019-04-04T01:28:11.312Z,96375.68
2019-04-04T01:33:12.387Z,96380.80
2019-04-04T01:38:13.303Z,96372.67
2019-04-04T01:43:14.176Z,96371.00
2019-04-04T01:48:15.066Z,96368.53
2019-04-04T01:53:15.961Z,96368.37
2019-04-04T01:58:16.851Z,96361.58
2019-04-04T02:03:17.715Z,96358.25
2019-04-04T02:08:18.690Z,96355.73
2019-04-04T02:13:19.564Z,96352.63
2019-04-04T02:18:23.357Z,96351.63
2019-04-04T02:23:23.858Z,96347.37
2019-04-04T02:28:24.711Z,96338.80
2019-04-04T02:33:25.588Z,96334.14
2019-04-04T02:38:27.972Z,96330.23
2019-04-04T02:43:29.356Z,96325.77
2019-04-04T02:48:30.225Z,96320.39
2019-04-04T02:53:31.120Z,96317.78
2019-04-04T02:58:32.012Z,96313.45
2019-04-04T03:03:32.871Z,96309.27
2019-04-04T03:08:36.670Z,96308.93
2019-04-04T03:13:36.630Z,96308.16
2019-04-04T03:18:38.147Z,96294.58
2019-04-04T03:23:39.277Z,96301.02
2019-04-04T03:28:41.575Z,96298.06
2019-04-04T03:33:42.545Z,96303.72
2019-04-04T03:38:46.030Z,96299.14
2019-04-04T03:43:48.917Z,96295.55
2019-04-04T03:48:50.891Z,96290.39
2019-04-04T03:53:53.633Z,96283.19
2019-04-04T03:58:54.934Z,96284.42
2019-04-04T04:03:55.945Z,96284.04
2019-04-04T04:08:56.861Z,96277.17
2019-04-04T04:13:57.734Z,96269.95
2019-04-04T04:18:58.980Z,96262.67
2019-04-04T04:23:59.837Z,96262.42
2019-04-04T04:29:00.717Z,96251.95
2019-04-04T04:34:01.862Z,96250.40
2019-04-04T04:39:05.161Z,96252.52
2019-04-04T04:44:06.562Z,96252.13
2019-04-04T04:49:07.663Z,96253.13
2019-04-04T04:54:08.571Z,96252.82
2019-04-04T04:59:11.113Z,96243.80
2019-04-04T05:04:12.227Z,96246.59
2019-04-04T05:09:14.074Z,96239.14
2019-04-04T05:14:15.569Z,96239.77
2019-04-04T05:19:17.083Z,96233.43
2019-04-04T05:24:19.239Z,96233.33
2019-04-04T05:29:20.090Z,96238.06
2019-04-04T05:34:20.970Z,96239.59
2019-04-04T05:39:21.824Z,96237.41
2019-04-04T05:44:22.802Z,96232.38
2019-04-04T05:49:23.701Z,96220.70
2019-04-04T05:54:24.552Z,96213.84
2019-04-04T05:59:25.430Z,96205.11
2019-04-04T06:04:26.326Z,96212.92
2019-04-04T06:09:27.279Z,96212.16
2019-04-04T06:14:30.002Z,96212.63
2019-04-04T06:19:30.952Z,96216.67
2019-04-04T06:24:31.819Z,96207.36
2019-04-04T06:29:32.795Z,96205.36
2019-04-04T06:34:33.692Z,96195.92
2019-04-04T06:39:34.569Z,96196.16
2019-04-04T06:44:35.465Z,96194.92
2019-04-04T06:49:36.334Z,96190.02
2019-04-04T06:54:37.229Z,96178.83
2019-04-04T06:59:38.148Z,96173.86
2019-04-04T07:04:39.124Z,96171.86
2019-04-04T07:09:39.997Z,96163.27
2019-04-04T07:14:45.937Z,96162.69
2019-04-04T07:19:45.848Z,96163.36
2019-04-04T07:24:46.425Z,96150.36
2019-04-04T07:29:47.303Z,96136.78
2019-04-04T07:34:48.180Z,96141.40
2019-04-04T07:39:50.182Z,96126.38
2019-04-04T07:44:54.400Z,96125.73
2019-04-04T07:49:54.999Z,96121.94
2019-04-04T07:54:56.445Z,96103.28
2019-04-04T07:59:57.323Z,96101.30
2019-04-04T08:04:58.208Z,96094.47
2019-04-04T08:09:59.102Z,96089.56
2019-04-04T08:14:59.948Z,96084.05
2019-04-04T08:20:00.821Z,96084.29
2019-04-04T08:25:02.347Z,96087.66
2019-04-04T08:30:05.644Z,96084.59
2019-04-04T08:35:06.635Z,96091.72
2019-04-04T08:40:08.104Z,96092.10
2019-04-04T08:45:09.468Z,96075.67
2019-04-04T08:50:11.328Z,96070.72
2019-04-04T08:55:12.333Z,96073.22
2019-04-04T09:00:13.505Z,96068.78
2019-04-04T09:05:14.376Z,96066.41
2019-04-04T09:10:15.357Z,96062.14
2019-04-04T09:15:16.332Z,96053.09
2019-04-04T09:20:17.212Z,96054.84
2019-04-04T09:25:18.185Z,96052.00
2019-04-04T09:30:19.462Z,96059.19
2019-04-04T09:35:20.439Z,96067.73
2019-04-04T09:40:21.344Z,96063.38
2019-04-04T09:45:22.316Z,96064.96
2019-04-04T09:50:23.183Z,96059.78
2019-04-04T09:55:24.180Z,96065.31
2019-04-04T10:00:25.300Z,96067.13
2019-04-04T10:05:26.284Z,96062.98
2019-04-04T10:10:27.157Z,96060.73
2019-04-04T10:15:28.028Z,96075.02
2019-04-04T10:20:28.907Z,96078.01
2019-04-04T10:25:29.875Z,96067.94
2019-04-04T10:30:30.751Z,96071.98
2019-04-04T10:35:31.672Z,96073.28
2019-04-04T10:40:32.570Z,96070.82
2019-04-04T10:45:33.439Z,96076.39
2019-04-04T10:50:34.422Z,96077.76
2019-04-04T10:55:35.412Z,96070.12
2019-04-04T11:00:36.426Z,96062.17
2019-04-04T11:05:37.319Z,96056.20
2019-04-04T11:10:38.201Z,96051.70
2019-04-04T11:15:39.074Z,96046.78
2019-04-04T11:20:39.953Z,96053.26
2019-04-04T11:25:40.824Z,96042.02
2019-04-04T11:30:41.728Z,96041.95
2019-04-04T11:35:42.611Z,96038.60
2019-04-04T11:40:43.677Z,96028.58
2019-04-04T11:45:44.751Z,96029.27
2019-04-04T11:50:45.708Z,96022.30
2019-04-04T11:55:46.626Z,96021.59
2019-04-04T12:00:49.498Z,96010.83
2019-04-04T12:05:50.473Z,96016.44
2019-04-04T12:10:51.348Z,96015.09
2019-04-04T12:15:52.327Z,96009.70
2019-04-04T12:20:53.196Z,96001.80
2019-04-04T12:25:54.504Z,95995.34
2019-04-04T12:30:58.481Z,96003.39
2019-04-04T12:35:59.867Z,95992.84
2019-04-04T12:41:01.077Z,95995.77
2019-04-04T12:46:02.826Z,95993.50
2019-04-04T12:51:04.125Z,95988.48
2019-04-04T12:56:05.561Z,95995.44
2019-04-04T13:01:07.283Z,95988.58
2019-04-04T13:06:08.856Z,95980.47
2019-04-04T13:11:09.728Z,95979.97
2019-04-04T13:16:10.607Z,95985.73
2019-04-04T13:21:11.475Z,95987.69
2019-04-04T13:26:12.387Z,95981.07
2019-04-04T13:31:13.343Z,95979.80
2019-04-04T13:36:14.228Z,95979.06
2019-04-04T13:41:21.758Z,95985.51
2019-04-04T13:46:17.884Z,95978.22
2019-04-04T13:51:21.118Z,95994.45
2019-04-04T13:56:21.587Z,95991.20
2019-04-04T14:01:25.272Z,95988.48
2019-04-04T14:06:25.251Z,95988.41
2019-04-04T14:11:26.119Z,95993.29
2019-04-04T14:16:26.998Z,95991.31
2019-04-04T14:21:27.977Z,95990.16
2019-04-04T14:26:29.336Z,95988.72
2019-04-04T14:31:31.780Z,95986.45
2019-04-04T14:36:32.668Z,95993.78
2019-04-04T14:41:33.637Z,96003.90
2019-04-04T14:46:34.509Z,96007.84
2019-04-04T14:51:35.389Z,96001.16
2019-04-04T14:56:36.265Z,95991.31
2019-04-04T15:01:37.169Z,95997.59
2019-04-04T15:06:38.249Z,95990.27
2019-04-04T15:11:39.117Z,95992.68
2019-04-04T15:16:40.010Z,96002.69
2019-04-04T15:21:40.880Z,95990.55
2019-04-04T15:26:41.768Z,95990.13
2019-04-04T15:31:42.728Z,95986.02
2019-04-04T15:36:43.621Z,95991.91
2019-04-04T15:41:44.704Z,95990.78
2019-04-04T15:46:45.809Z,95999.01
2019-04-04T15:51:46.700Z,95998.09
2019-04-04T15:56:47.625Z,96003.34
2019-04-04T16:01:48.516Z,96004.78
2019-04-04T16:06:49.817Z,96011.25
2019-04-04T16:11:50.677Z,96015.15
2019-04-04T16:16:51.552Z,96001.93
2019-04-04T16:21:52.437Z,96005.92
2019-04-04T16:26:56.587Z,96010.34
2019-04-04T16:31:57.559Z,96008.70
2019-04-04T16:36:58.437Z,96013.77
2019-04-04T16:42:02.579Z,96013.87
2019-04-04T16:47:05.147Z,96004.66
2019-04-04T16:52:07.349Z,96001.45
2019-04-04T16:57:08.765Z,96003.83
2019-04-04T17:02:09.660Z,96023.00
2019-04-04T17:07:10.533Z,96048.77
2019-04-04T17:12:15.199Z,96058.73
2019-04-04T17:17:14.473Z,96069.78
2019-04-04T17:22:15.339Z,96074.36
2019-04-04T17:27:16.208Z,96086.44
2019-04-04T17:32:17.508Z,96091.63
2019-04-04T17:37:18.927Z,96107.14
2019-04-04T17:42:28.947Z,96112.57
2019-04-04T17:47:22.848Z,96130.53
2019-04-04T17:52:24.291Z,96141.45
2019-04-04T17:57:25.712Z,96159.13
2019-04-04T18:02:26.675Z,96166.98
2019-04-04T18:07:27.528Z,96172.80
2019-04-04T18:12:39.617Z,96190.84
2019-04-04T18:17:31.200Z,96203.95
2019-04-04T18:22:32.072Z,96214.95
2019-04-04T18:27:32.945Z,96229.05
2019-04-04T18:32:33.812Z,96247.61
2019-04-04T18:37:34.685Z,96281.73
2019-04-04T18:42:36.244Z,96328.63
2019-04-04T18:47:37.105Z,96350.82
2019-04-04T18:52:37.987Z,96386.06
2019-04-04T18:57:38.871Z,96378.92
2019-04-04T19:02:40.052Z,96411.91
2019-04-04T19:07:41.027Z,96432.75
2019-04-04T19:12:41.928Z,96443.75
2019-04-04T19:17:42.957Z,96458.49
2019-04-04T19:22:43.993Z,96473.41
2019-04-04T19:27:44.972Z,96499.67
2019-04-04T19:32:45.870Z,96513.59
2019-04-04T19:37:58.929Z,96527.80
2019-04-04T19:42:49.667Z,96537.83
2019-04-04T19:47:50.661Z,96554.53
2019-04-04T19:52:51.835Z,96547.03
2019-04-04T19:57:52.705Z,96541.14
2019-04-04T20:02:53.610Z,96555.39
2019-04-04T20:07:54.605Z,96567.75
2019-04-04T20:12:55.544Z,96575.88
2019-04-04T20:17:56.420Z,96589.84
2019-04-04T20:22:57.410Z,96583.78
2019-04-04T20:27:58.309Z,96588.95
2019-04-04T20:32:59.193Z,96617.14
2019-04-04T20:38:00.061Z,96617.02
2019-04-04T20:43:00.947Z,96647.75
2019-04-04T20:48:01.821Z,96624.03
2019-04-04T20:53:02.901Z,96653.41
2019-04-04T20:58:03.887Z,96643.35
2019-04-04T21:03:04.880Z,96638.64
2019-04-04T21:08:05.778Z,96640.22
2019-04-04T21:13:06.648Z,96643.60
2019-04-04T21:18:07.526Z,96664.34
2019-04-04T21:23:08.411Z,96676.58
2019-04-04T21:28:09.285Z,96665.40
2019-04-04T21:33:10.162Z,96665.23
2019-04-04T21:38:11.017Z,96681.67
2019-04-04T21:43:11.891Z,96668.13
2019-04-04T21:48:12.768Z,96665.34
2019-04-04T21:53:13.648Z,96694.27
2019-04-04T21:58:14.523Z,96699.38
2019-04-04T22:03:15.408Z,96704.60
2019-04-04T22:08:16.289Z,96697.98
2019-04-04T22:13:17.181Z,96721.43
2019-04-04T22:18:18.051Z,96719.20
2019-04-04T22:23:19.007Z,96725.80
2019-04-04T22:28:20.234Z,96729.13
2019-04-04T22:33:21.108Z,96726.38
2019-04-04T22:38:21.954Z,96716.93
2019-04-04T22:43:22.815Z,96720.10
2019-04-04T22:48:23.698Z,96721.41
2019-04-04T22:53:25.066Z,96728.95
2019-04-04T22:58:28.441Z,96730.80
2019-04-04T23:03:28.920Z,96730.22
2019-04-04T23:08:29.787Z,96735.89
2019-04-04T23:13:30.668Z,96727.64
2019-04-04T23:18:32.021Z,96730.03
2019-04-04T23:23:32.977Z,96719.64
2019-04-04T23:28:33.964Z,96714.69
2019-04-04T23:33:34.829Z,96728.03
2019-04-04T23:38:35.802Z,96719.02
2019-04-04T23:43:36.691Z,96725.05
2019-04-04T23:48:37.587Z,96727.86
2019-04-04T23:53:38.476Z,96721.56
2019-04-04T23:58:39.371Z,96721.56
